Terminal Aerodrome Forecast
Issued by NWS Charleston, WV

Current Version | Previous Version | Text Only | Print | Product List | Glossary Off
Versions: 1 2 3 4 5 6 7 8 9 10 11 12 13 14 15 16 17 18 19 20 21 22 23 24 25 26

000
FTUS41 KRLX 141947 AAA
TAFBKW
TAF AMD
KBKW 141947Z 1420/1518 24006KT 6SM BR OVC008
     FM142100 25008KT 2SM -RA BR OVC004
      TEMPO 1421/1501 3/4SM -RA
     FM150300 30006KT 1SM -SHRA OVC003
     FM150700 30005KT 1/4SM FG OVC001
     FM151300 VRB03KT 2SM BR OVC003
     FM151600 00000KT 6SM BR OVC010=

USA.gov is the U.S. government's official web portal to all federal, state and local government web resources and services.